sensor_id;sensor_type;location;lat;lon;timestamp;P1;durP1;ratioP1;P2;durP2;ratioP2
27199;SDS011;14714;48.106;11.546;2024-01-10T00:00:17;49.75;;;21.63;;
27199;SDS011;14714;48.106;11.546;2024-01-10T00:02:44;48.60;;;21.02;;
27199;SDS011;14714;48.106;11.546;2024-01-10T00:05:11;49.67;;;21.77;;
27199;SDS011;14714;48.106;11.546;2024-01-10T00:07:38;46.90;;;20.88;;
27199;SDS011;14714;48.106;11.546;2024-01-10T00:10:05;53.53;;;22.20;;
27199;SDS011;14714;48.106;11.546;2024-01-10T00:12:32;48.88;;;22.13;;
27199;SDS011;14714;48.106;11.546;2024-01-10T00:15:03;47.88;;;21.15;;
27199;SDS011;14714;48.106;11.546;2024-01-10T00:17:30;49.22;;;21.15;;
27199;SDS011;14714;48.106;11.546;2024-01-10T00:19:57;45.95;;;21.67;;
27199;SDS011;14714;48.106;11.546;2024-01-10T00:22:24;49.33;;;21.30;;
27199;SDS011;14714;48.106;11.546;2024-01-10T00:24:51;48.03;;;21.35;;
27199;SDS011;14714;48.106;11.546;2024-01-10T00:27:18;46.97;;;20.42;;
27199;SDS011;14714;48.106;11.546;2024-01-10T00:29:45;50.20;;;20.67;;
27199;SDS011;14714;48.106;11.546;2024-01-10T00:32:12;45.30;;;19.23;;
27199;SDS011;14714;48.106;11.546;2024-01-10T00:34:38;48.35;;;20.25;;
27199;SDS011;14714;48.106;11.546;2024-01-10T00:37:05;44.17;;;19.13;;
27199;SDS011;14714;48.106;11.546;2024-01-10T00:39:32;48.15;;;19.65;;
27199;SDS011;14714;48.106;11.546;2024-01-10T00:41:59;49.17;;;20.42;;
27199;SDS011;14714;48.106;11.546;2024-01-10T00:44:26;47.38;;;20.60;;
27199;SDS011;14714;48.106;11.546;2024-01-10T00:46:53;48.38;;;20.10;;
27199;SDS011;14714;48.106;11.546;2024-01-10T00:49:20;48.90;;;20.50;;
27199;SDS011;14714;48.106;11.546;2024-01-10T00:51:47;48.95;;;20.40;;
27199;SDS011;14714;48.106;11.546;2024-01-10T00:54:14;50.10;;;19.10;;
27199;SDS011;14714;48.106;11.546;2024-01-10T00:56:41;48.30;;;20.40;;
27199;SDS011;14714;48.106;11.546;2024-01-10T00:59:08;50.53;;;19.92;;
27199;SDS011;14714;48.106;11.546;2024-01-10T01:01:35;55.25;;;21.65;;
27199;SDS011;14714;48.106;11.546;2024-01-10T01:04:01;52.13;;;20.70;;
27199;SDS011;14714;48.106;11.546;2024-01-10T01:06:28;51.00;;;20.55;;
27199;SDS011;14714;48.106;11.546;2024-01-10T01:08:55;53.47;;;21.30;;
27199;SDS011;14714;48.106;11.546;2024-01-10T01:11:23;48.83;;;20.77;;
27199;SDS011;14714;48.106;11.546;2024-01-10T01:13:50;49.13;;;19.75;;
27199;SDS011;14714;48.106;11.546;2024-01-10T01:16:16;52.22;;;20.67;;
27199;SDS011;14714;48.106;11.546;2024-01-10T01:18:43;50.50;;;20.75;;
27199;SDS011;14714;48.106;11.546;2024-01-10T01:21:11;50.67;;;19.65;;
27199;SDS011;14714;48.106;11.546;2024-01-10T01:23:38;48.97;;;19.25;;
27199;SDS011;14714;48.106;11.546;2024-01-10T01:26:08;48.63;;;20.85;;
27199;SDS011;14714;48.106;11.546;2024-01-10T01:28:35;50.00;;;20.65;;
27199;SDS011;14714;48.106;11.546;2024-01-10T01:31:02;53.63;;;21.38;;
27199;SDS011;14714;48.106;11.546;2024-01-10T01:33:29;58.17;;;21.67;;
27199;SDS011;14714;48.106;11.546;2024-01-10T01:35:56;61.65;;;22.42;;
27199;SDS011;14714;48.106;11.546;2024-01-10T01:38:23;51.15;;;21.13;;
27199;SDS011;14714;48.106;11.546;2024-01-10T01:40:50;53.53;;;22.27;;
27199;SDS011;14714;48.106;11.546;2024-01-10T01:43:24;54.00;;;21.23;;
27199;SDS011;14714;48.106;11.546;2024-01-10T01:45:52;47.97;;;19.98;;
27199;SDS011;14714;48.106;11.546;2024-01-10T01:48:21;56.08;;;22.40;;
27199;SDS011;14714;48.106;11.546;2024-01-10T01:50:50;55.17;;;21.92;;
27199;SDS011;14714;48.106;11.546;2024-01-10T01:53:18;53.67;;;21.20;;
27199;SDS011;14714;48.106;11.546;2024-01-10T01:55:45;53.92;;;22.60;;
27199;SDS011;14714;48.106;11.546;2024-01-10T01:58:13;53.40;;;21.48;;
27199;SDS011;14714;48.106;11.546;2024-01-10T02:00:40;50.08;;;20.50;;
27199;SDS011;14714;48.106;11.546;2024-01-10T02:03:08;53.03;;;21.52;;
27199;SDS011;14714;48.106;11.546;2024-01-10T02:05:36;52.55;;;21.30;;
27199;SDS011;14714;48.106;11.546;2024-01-10T02:08:04;56.72;;;22.05;;
27199;SDS011;14714;48.106;11.546;2024-01-10T02:10:31;50.53;;;21.10;;
27199;SDS011;14714;48.106;11.546;2024-01-10T02:12:58;51.35;;;21.42;;
27199;SDS011;14714;48.106;11.546;2024-01-10T02:15:25;53.05;;;21.58;;
27199;SDS011;14714;48.106;11.546;2024-01-10T02:17:52;51.08;;;20.60;;
27199;SDS011;14714;48.106;11.546;2024-01-10T02:20:19;53.63;;;21.13;;
27199;SDS011;14714;48.106;11.546;2024-01-10T02:25:17;48.75;;;20.08;;
27199;SDS011;14714;48.106;11.546;2024-01-10T02:27:44;50.72;;;20.23;;
27199;SDS011;14714;48.106;11.546;2024-01-10T02:30:11;50.35;;;18.75;;
27199;SDS011;14714;48.106;11.546;2024-01-10T02:32:38;52.28;;;20.85;;
27199;SDS011;14714;48.106;11.546;2024-01-10T02:35:05;55.22;;;20.42;;
27199;SDS011;14714;48.106;11.546;2024-01-10T02:37:33;49.30;;;20.63;;
27199;SDS011;14714;48.106;11.546;2024-01-10T02:40:00;52.28;;;21.48;;
27199;SDS011;14714;48.106;11.546;2024-01-10T02:42:27;52.00;;;20.88;;
27199;SDS011;14714;48.106;11.546;2024-01-10T02:44:56;51.92;;;20.88;;
27199;SDS011;14714;48.106;11.546;2024-01-10T02:47:23;48.88;;;20.98;;
27199;SDS011;14714;48.106;11.546;2024-01-10T02:49:50;48.13;;;20.13;;
27199;SDS011;14714;48.106;11.546;2024-01-10T02:52:17;50.28;;;21.17;;
27199;SDS011;14714;48.106;11.546;2024-01-10T02:54:46;48.75;;;20.38;;
27199;SDS011;14714;48.106;11.546;2024-01-10T02:57:13;47.72;;;20.08;;
27199;SDS011;14714;48.106;11.546;2024-01-10T02:59:40;48.83;;;21.15;;
27199;SDS011;14714;48.106;11.546;2024-01-10T03:02:06;53.50;;;21.60;;
27199;SDS011;14714;48.106;11.546;2024-01-10T03:04:34;55.15;;;21.00;;
27199;SDS011;14714;48.106;11.546;2024-01-10T03:07:00;49.85;;;20.35;;
27199;SDS011;14714;48.106;11.546;2024-01-10T03:09:27;53.42;;;21.40;;
27199;SDS011;14714;48.106;11.546;2024-01-10T03:11:54;51.83;;;20.48;;
27199;SDS011;14714;48.106;11.546;2024-01-10T03:14:21;53.83;;;22.23;;
27199;SDS011;14714;48.106;11.546;2024-01-10T03:16:48;54.83;;;21.60;;
27199;SDS011;14714;48.106;11.546;2024-01-10T03:19:15;54.15;;;21.15;;
27199;SDS011;14714;48.106;11.546;2024-01-10T03:21:43;51.75;;;21.75;;
27199;SDS011;14714;48.106;11.546;2024-01-10T03:24:09;47.55;;;20.75;;
27199;SDS011;14714;48.106;11.546;2024-01-10T03:26:36;48.30;;;20.17;;
27199;SDS011;14714;48.106;11.546;2024-01-10T03:29:03;53.40;;;21.38;;
27199;SDS011;14714;48.106;11.546;2024-01-10T03:31:31;56.88;;;21.52;;
27199;SDS011;14714;48.106;11.546;2024-01-10T03:33:58;50.15;;;20.00;;
27199;SDS011;14714;48.106;11.546;2024-01-10T03:36:25;53.90;;;20.85;;
27199;SDS011;14714;48.106;11.546;2024-01-10T03:38:52;50.63;;;20.42;;
27199;SDS011;14714;48.106;11.546;2024-01-10T03:41:19;51.00;;;21.25;;
27199;SDS011;14714;48.106;11.546;2024-01-10T03:43:47;50.10;;;21.23;;
27199;SDS011;14714;48.106;11.546;2024-01-10T03:46:15;54.25;;;20.83;;
27199;SDS011;14714;48.106;11.546;2024-01-10T03:48:42;49.78;;;19.95;;
27199;SDS011;14714;48.106;11.546;2024-01-10T03:51:16;55.40;;;21.58;;
27199;SDS011;14714;48.106;11.546;2024-01-10T03:53:47;52.65;;;21.17;;
27199;SDS011;14714;48.106;11.546;2024-01-10T03:56:15;51.53;;;20.83;;
27199;SDS011;14714;48.106;11.546;2024-01-10T03:58:43;53.20;;;21.17;;
27199;SDS011;14714;48.106;11.546;2024-01-10T04:01:10;52.03;;;20.60;;
27199;SDS011;14714;48.106;11.546;2024-01-10T04:03:37;54.40;;;21.50;;
27199;SDS011;14714;48.106;11.546;2024-01-10T04:06:04;51.38;;;19.23;;
27199;SDS011;14714;48.106;11.546;2024-01-10T04:08:32;53.13;;;20.98;;
27199;SDS011;14714;48.106;11.546;2024-01-10T04:10:58;53.40;;;20.98;;
27199;SDS011;14714;48.106;11.546;2024-01-10T04:13:25;53.20;;;20.15;;
27199;SDS011;14714;48.106;11.546;2024-01-10T04:15:52;53.25;;;20.58;;
27199;SDS011;14714;48.106;11.546;2024-01-10T04:18:19;48.90;;;19.20;;
27199;SDS011;14714;48.106;11.546;2024-01-10T04:20:47;44.75;;;18.45;;
27199;SDS011;14714;48.106;11.546;2024-01-10T04:23:15;50.83;;;19.88;;
27199;SDS011;14714;48.106;11.546;2024-01-10T04:25:42;46.90;;;20.58;;
27199;SDS011;14714;48.106;11.546;2024-01-10T04:28:09;46.78;;;19.50;;
27199;SDS011;14714;48.106;11.546;2024-01-10T04:30:36;47.75;;;19.90;;
27199;SDS011;14714;48.106;11.546;2024-01-10T04:33:03;55.58;;;20.73;;
27199;SDS011;14714;48.106;11.546;2024-01-10T04:35:30;47.50;;;19.40;;
27199;SDS011;14714;48.106;11.546;2024-01-10T04:37:57;46.90;;;19.67;;
27199;SDS011;14714;48.106;11.546;2024-01-10T04:40:24;47.10;;;19.60;;
27199;SDS011;14714;48.106;11.546;2024-01-10T04:42:51;50.03;;;19.85;;
27199;SDS011;14714;48.106;11.546;2024-01-10T04:45:18;55.63;;;19.35;;
27199;SDS011;14714;48.106;11.546;2024-01-10T04:47:45;47.70;;;18.83;;
27199;SDS011;14714;48.106;11.546;2024-01-10T04:50:12;46.47;;;18.27;;
27199;SDS011;14714;48.106;11.546;2024-01-10T04:52:40;45.63;;;19.15;;
27199;SDS011;14714;48.106;11.546;2024-01-10T04:55:07;47.20;;;18.65;;
27199;SDS011;14714;48.106;11.546;2024-01-10T04:57:35;50.70;;;20.10;;
27199;SDS011;14714;48.106;11.546;2024-01-10T05:00:04;49.08;;;19.25;;
27199;SDS011;14714;48.106;11.546;2024-01-10T05:02:33;45.58;;;18.85;;
27199;SDS011;14714;48.106;11.546;2024-01-10T05:05:00;47.47;;;19.85;;
27199;SDS011;14714;48.106;11.546;2024-01-10T05:07:27;43.90;;;18.63;;
27199;SDS011;14714;48.106;11.546;2024-01-10T05:09:54;45.15;;;19.02;;
27199;SDS011;14714;48.106;11.546;2024-01-10T05:12:21;49.40;;;18.35;;
27199;SDS011;14714;48.106;11.546;2024-01-10T05:14:48;46.30;;;19.35;;
27199;SDS011;14714;48.106;11.546;2024-01-10T05:17:15;45.40;;;18.67;;
27199;SDS011;14714;48.106;11.546;2024-01-10T05:19:42;43.72;;;17.15;;
27199;SDS011;14714;48.106;11.546;2024-01-10T05:22:09;49.05;;;18.60;;
27199;SDS011;14714;48.106;11.546;2024-01-10T05:24:36;41.55;;;17.13;;
27199;SDS011;14714;48.106;11.546;2024-01-10T05:27:03;42.00;;;18.05;;
27199;SDS011;14714;48.106;11.546;2024-01-10T05:29:30;42.05;;;17.63;;
27199;SDS011;14714;48.106;11.546;2024-01-10T05:31:57;45.35;;;17.95;;
27199;SDS011;14714;48.106;11.546;2024-01-10T05:34:24;42.78;;;17.05;;
27199;SDS011;14714;48.106;11.546;2024-01-10T05:36:51;44.55;;;17.58;;
27199;SDS011;14714;48.106;11.546;2024-01-10T05:39:17;41.90;;;17.90;;
27199;SDS011;14714;48.106;11.546;2024-01-10T05:41:47;48.85;;;18.25;;
27199;SDS011;14714;48.106;11.546;2024-01-10T05:44:14;46.65;;;17.58;;
27199;SDS011;14714;48.106;11.546;2024-01-10T05:46:41;44.53;;;17.02;;
27199;SDS011;14714;48.106;11.546;2024-01-10T05:49:11;45.25;;;18.15;;
27199;SDS011;14714;48.106;11.546;2024-01-10T05:51:38;46.72;;;18.10;;
27199;SDS011;14714;48.106;11.546;2024-01-10T05:54:05;44.10;;;17.98;;
27199;SDS011;14714;48.106;11.546;2024-01-10T05:56:33;48.50;;;18.35;;
27199;SDS011;14714;48.106;11.546;2024-01-10T05:59:00;48.22;;;18.30;;
27199;SDS011;14714;48.106;11.546;2024-01-10T06:01:27;49.85;;;19.30;;
27199;SDS011;14714;48.106;11.546;2024-01-10T06:03:55;49.22;;;17.95;;
27199;SDS011;14714;48.106;11.546;2024-01-10T06:06:22;47.45;;;18.67;;
27199;SDS011;14714;48.106;11.546;2024-01-10T06:08:50;52.08;;;18.55;;
27199;SDS011;14714;48.106;11.546;2024-01-10T06:11:17;48.85;;;18.35;;
27199;SDS011;14714;48.106;11.546;2024-01-10T06:13:44;49.05;;;18.27;;
27199;SDS011;14714;48.106;11.546;2024-01-10T06:16:22;50.58;;;19.48;;
27199;SDS011;14714;48.106;11.546;2024-01-10T06:18:49;50.90;;;18.67;;
27199;SDS011;14714;48.106;11.546;2024-01-10T06:21:16;52.33;;;19.35;;
27199;SDS011;14714;48.106;11.546;2024-01-10T06:23:43;51.78;;;18.88;;
27199;SDS011;14714;48.106;11.546;2024-01-10T06:26:09;49.80;;;18.92;;
27199;SDS011;14714;48.106;11.546;2024-01-10T06:28:37;56.72;;;20.55;;
27199;SDS011;14714;48.106;11.546;2024-01-10T06:31:05;57.72;;;20.27;;
27199;SDS011;14714;48.106;11.546;2024-01-10T06:33:37;53.78;;;19.60;;
27199;SDS011;14714;48.106;11.546;2024-01-10T06:36:04;53.53;;;20.05;;
27199;SDS011;14714;48.106;11.546;2024-01-10T06:38:31;51.53;;;19.30;;
27199;SDS011;14714;48.106;11.546;2024-01-10T06:40:58;59.45;;;21.00;;
27199;SDS011;14714;48.106;11.546;2024-01-10T06:43:25;57.03;;;20.27;;
27199;SDS011;14714;48.106;11.546;2024-01-10T06:45:52;53.38;;;20.35;;
27199;SDS011;14714;48.106;11.546;2024-01-10T06:48:19;57.03;;;21.00;;
27199;SDS011;14714;48.106;11.546;2024-01-10T06:50:46;54.35;;;19.80;;
27199;SDS011;14714;48.106;11.546;2024-01-10T06:53:13;55.40;;;20.00;;
27199;SDS011;14714;48.106;11.546;2024-01-10T06:55:40;54.50;;;20.10;;
27199;SDS011;14714;48.106;11.546;2024-01-10T06:58:07;58.25;;;19.95;;
27199;SDS011;14714;48.106;11.546;2024-01-10T07:00:34;56.42;;;19.05;;
27199;SDS011;14714;48.106;11.546;2024-01-10T07:03:01;57.22;;;19.83;;
27199;SDS011;14714;48.106;11.546;2024-01-10T07:05:28;52.63;;;19.02;;
27199;SDS011;14714;48.106;11.546;2024-01-10T07:07:58;62.55;;;20.60;;
27199;SDS011;14714;48.106;11.546;2024-01-10T07:10:25;60.20;;;21.33;;
27199;SDS011;14714;48.106;11.546;2024-01-10T07:12:54;52.67;;;19.35;;
27199;SDS011;14714;48.106;11.546;2024-01-10T07:15:21;64.32;;;22.70;;
27199;SDS011;14714;48.106;11.546;2024-01-10T07:17:49;60.90;;;21.38;;
27199;SDS011;14714;48.106;11.546;2024-01-10T07:20:16;62.30;;;21.85;;
27199;SDS011;14714;48.106;11.546;2024-01-10T07:22:43;59.00;;;21.67;;
27199;SDS011;14714;48.106;11.546;2024-01-10T07:25:13;56.78;;;20.42;;
27199;SDS011;14714;48.106;11.546;2024-01-10T07:27:43;63.22;;;22.20;;
27199;SDS011;14714;48.106;11.546;2024-01-10T07:30:10;57.45;;;21.45;;
27199;SDS011;14714;48.106;11.546;2024-01-10T07:32:40;64.85;;;23.45;;
27199;SDS011;14714;48.106;11.546;2024-01-10T07:35:08;69.50;;;24.80;;
27199;SDS011;14714;48.106;11.546;2024-01-10T07:37:39;64.85;;;23.13;;
27199;SDS011;14714;48.106;11.546;2024-01-10T07:40:07;66.30;;;23.05;;
27199;SDS011;14714;48.106;11.546;2024-01-10T07:42:37;68.40;;;23.67;;
27199;SDS011;14714;48.106;11.546;2024-01-10T07:45:05;63.20;;;22.30;;
27199;SDS011;14714;48.106;11.546;2024-01-10T07:47:34;60.65;;;21.48;;
27199;SDS011;14714;48.106;11.546;2024-01-10T07:50:08;63.15;;;22.85;;
27199;SDS011;14714;48.106;11.546;2024-01-10T07:52:36;61.40;;;22.90;;
27199;SDS011;14714;48.106;11.546;2024-01-10T07:55:03;63.42;;;22.48;;
27199;SDS011;14714;48.106;11.546;2024-01-10T07:57:33;61.47;;;23.85;;
27199;SDS011;14714;48.106;11.546;2024-01-10T08:00:00;62.10;;;23.45;;
27199;SDS011;14714;48.106;11.546;2024-01-10T08:02:27;62.88;;;23.23;;
27199;SDS011;14714;48.106;11.546;2024-01-10T08:04:54;64.32;;;22.92;;
27199;SDS011;14714;48.106;11.546;2024-01-10T08:07:21;58.80;;;22.17;;
27199;SDS011;14714;48.106;11.546;2024-01-10T08:09:49;59.25;;;21.88;;
27199;SDS011;14714;48.106;11.546;2024-01-10T08:12:16;57.75;;;23.23;;
27199;SDS011;14714;48.106;11.546;2024-01-10T08:14:43;52.55;;;20.95;;
27199;SDS011;14714;48.106;11.546;2024-01-10T08:17:12;58.88;;;23.60;;
27199;SDS011;14714;48.106;11.546;2024-01-10T08:19:39;61.83;;;21.85;;
27199;SDS011;14714;48.106;11.546;2024-01-10T08:22:06;56.53;;;21.33;;
27199;SDS011;14714;48.106;11.546;2024-01-10T08:24:34;55.45;;;22.50;;
27199;SDS011;14714;48.106;11.546;2024-01-10T08:27:01;55.17;;;22.50;;
27199;SDS011;14714;48.106;11.546;2024-01-10T08:29:28;57.53;;;21.77;;
27199;SDS011;14714;48.106;11.546;2024-01-10T08:31:57;57.22;;;22.10;;
27199;SDS011;14714;48.106;11.546;2024-01-10T08:34:24;54.78;;;22.38;;
27199;SDS011;14714;48.106;11.546;2024-01-10T08:36:51;55.67;;;22.48;;
27199;SDS011;14714;48.106;11.546;2024-01-10T08:39:18;63.15;;;23.88;;
27199;SDS011;14714;48.106;11.546;2024-01-10T08:41:46;54.15;;;22.92;;
27199;SDS011;14714;48.106;11.546;2024-01-10T08:44:13;54.45;;;22.42;;
27199;SDS011;14714;48.106;11.546;2024-01-10T08:46:40;56.50;;;23.65;;
27199;SDS011;14714;48.106;11.546;2024-01-10T08:49:08;51.75;;;22.40;;
27199;SDS011;14714;48.106;11.546;2024-01-10T08:51:36;53.00;;;22.08;;
27199;SDS011;14714;48.106;11.546;2024-01-10T08:54:03;52.15;;;22.58;;
27199;SDS011;14714;48.106;11.546;2024-01-10T08:56:31;54.92;;;23.75;;
27199;SDS011;14714;48.106;11.546;2024-01-10T08:58:57;51.17;;;22.60;;
27199;SDS011;14714;48.106;11.546;2024-01-10T09:01:24;59.25;;;23.92;;
27199;SDS011;14714;48.106;11.546;2024-01-10T09:03:51;50.45;;;23.02;;
27199;SDS011;14714;48.106;11.546;2024-01-10T09:06:18;51.25;;;23.23;;
27199;SDS011;14714;48.106;11.546;2024-01-10T09:08:47;52.92;;;23.13;;
27199;SDS011;14714;48.106;11.546;2024-01-10T09:11:14;50.83;;;22.60;;
27199;SDS011;14714;48.106;11.546;2024-01-10T09:13:41;54.95;;;23.75;;
27199;SDS011;14714;48.106;11.546;2024-01-10T09:16:08;53.42;;;23.67;;
27199;SDS011;14714;48.106;11.546;2024-01-10T09:18:35;54.25;;;25.08;;
27199;SDS011;14714;48.106;11.546;2024-01-10T09:21:03;54.03;;;24.33;;
27199;SDS011;14714;48.106;11.546;2024-01-10T09:23:30;54.85;;;24.17;;
27199;SDS011;14714;48.106;11.546;2024-01-10T09:25:57;53.25;;;24.67;;
27199;SDS011;14714;48.106;11.546;2024-01-10T09:28:24;54.67;;;25.42;;
27199;SDS011;14714;48.106;11.546;2024-01-10T09:30:52;54.65;;;25.88;;
27199;SDS011;14714;48.106;11.546;2024-01-10T09:33:20;49.95;;;24.77;;
27199;SDS011;14714;48.106;11.546;2024-01-10T09:35:49;54.67;;;24.65;;
27199;SDS011;14714;48.106;11.546;2024-01-10T09:38:16;52.13;;;24.30;;
27199;SDS011;14714;48.106;11.546;2024-01-10T09:40:43;59.05;;;25.33;;
27199;SDS011;14714;48.106;11.546;2024-01-10T09:43:10;55.30;;;24.92;;
27199;SDS011;14714;48.106;11.546;2024-01-10T09:45:40;55.10;;;24.95;;
27199;SDS011;14714;48.106;11.546;2024-01-10T09:48:13;56.88;;;25.08;;
27199;SDS011;14714;48.106;11.546;2024-01-10T09:50:41;52.88;;;25.05;;
27199;SDS011;14714;48.106;11.546;2024-01-10T09:53:10;54.10;;;24.77;;
27199;SDS011;14714;48.106;11.546;2024-01-10T09:55:46;51.22;;;24.08;;
27199;SDS011;14714;48.106;11.546;2024-01-10T09:58:13;53.40;;;24.27;;
27199;SDS011;14714;48.106;11.546;2024-01-10T10:00:40;55.15;;;24.52;;
27199;SDS011;14714;48.106;11.546;2024-01-10T10:03:07;53.58;;;24.83;;
27199;SDS011;14714;48.106;11.546;2024-01-10T10:05:38;51.97;;;24.23;;
27199;SDS011;14714;48.106;11.546;2024-01-10T10:08:10;57.10;;;25.67;;
27199;SDS011;14714;48.106;11.546;2024-01-10T10:10:38;53.83;;;24.10;;
27199;SDS011;14714;48.106;11.546;2024-01-10T10:13:23;56.92;;;23.88;;
27199;SDS011;14714;48.106;11.546;2024-01-10T10:16:01;52.70;;;23.55;;
27199;SDS011;14714;48.106;11.546;2024-01-10T10:18:30;56.80;;;24.17;;
27199;SDS011;14714;48.106;11.546;2024-01-10T10:21:11;51.75;;;24.50;;
27199;SDS011;14714;48.106;11.546;2024-01-10T10:23:43;55.58;;;23.88;;
27199;SDS011;14714;48.106;11.546;2024-01-10T10:26:32;52.75;;;23.50;;
27199;SDS011;14714;48.106;11.546;2024-01-10T10:29:00;50.28;;;23.23;;
27199;SDS011;14714;48.106;11.546;2024-01-10T10:31:27;57.22;;;24.58;;
27199;SDS011;14714;48.106;11.546;2024-01-10T10:33:55;51.33;;;23.38;;
27199;SDS011;14714;48.106;11.546;2024-01-10T10:36:22;53.22;;;25.08;;
27199;SDS011;14714;48.106;11.546;2024-01-10T10:38:49;53.25;;;24.27;;
27199;SDS011;14714;48.106;11.546;2024-01-10T10:41:16;52.45;;;24.30;;
27199;SDS011;14714;48.106;11.546;2024-01-10T10:43:45;54.15;;;24.02;;
27199;SDS011;14714;48.106;11.546;2024-01-10T10:46:14;51.00;;;23.23;;
27199;SDS011;14714;48.106;11.546;2024-01-10T10:48:42;58.25;;;25.60;;
27199;SDS011;14714;48.106;11.546;2024-01-10T10:51:11;51.00;;;24.70;;
27199;SDS011;14714;48.106;11.546;2024-01-10T10:53:42;48.03;;;22.73;;
27199;SDS011;14714;48.106;11.546;2024-01-10T10:56:11;51.78;;;24.08;;
27199;SDS011;14714;48.106;11.546;2024-01-10T10:58:41;52.40;;;24.40;;
27199;SDS011;14714;48.106;11.546;2024-01-10T11:01:09;56.10;;;23.70;;
27199;SDS011;14714;48.106;11.546;2024-01-10T11:03:39;54.10;;;24.67;;
27199;SDS011;14714;48.106;11.546;2024-01-10T11:06:09;52.15;;;24.55;;
27199;SDS011;14714;48.106;11.546;2024-01-10T11:08:46;49.55;;;23.38;;
27199;SDS011;14714;48.106;11.546;2024-01-10T11:22:49;48.08;;;22.50;;
27199;SDS011;14714;48.106;11.546;2024-01-10T11:25:21;46.35;;;22.02;;
27199;SDS011;14714;48.106;11.546;2024-01-10T11:27:52;49.83;;;23.17;;
27199;SDS011;14714;48.106;11.546;2024-01-10T11:30:29;53.38;;;23.17;;
27199;SDS011;14714;48.106;11.546;2024-01-10T11:33:26;51.65;;;23.80;;
27199;SDS011;14714;48.106;11.546;2024-01-10T11:36:33;51.33;;;22.83;;
27199;SDS011;14714;48.106;11.546;2024-01-10T11:41:29;45.42;;;22.98;;
27199;SDS011;14714;48.106;11.546;2024-01-10T11:46:40;53.72;;;24.08;;
27199;SDS011;14714;48.106;11.546;2024-01-10T11:49:15;56.13;;;25.10;;
27199;SDS011;14714;48.106;11.546;2024-01-10T11:51:44;53.17;;;23.90;;
27199;SDS011;14714;48.106;11.546;2024-01-10T11:57:10;54.78;;;24.60;;
27199;SDS011;14714;48.106;11.546;2024-01-10T11:59:58;53.15;;;24.50;;
27199;SDS011;14714;48.106;11.546;2024-01-10T12:02:27;51.33;;;24.10;;
27199;SDS011;14714;48.106;11.546;2024-01-10T12:04:56;53.40;;;23.95;;
27199;SDS011;14714;48.106;11.546;2024-01-10T12:07:23;54.00;;;24.27;;
27199;SDS011;14714;48.106;11.546;2024-01-10T12:09:51;55.50;;;24.33;;
27199;SDS011;14714;48.106;11.546;2024-01-10T12:12:18;55.50;;;25.15;;
27199;SDS011;14714;48.106;11.546;2024-01-10T12:14:45;53.80;;;24.00;;
27199;SDS011;14714;48.106;11.546;2024-01-10T12:17:13;53.58;;;23.88;;
27199;SDS011;14714;48.106;11.546;2024-01-10T12:19:40;53.63;;;24.33;;
27199;SDS011;14714;48.106;11.546;2024-01-10T12:22:12;55.13;;;25.85;;
27199;SDS011;14714;48.106;11.546;2024-01-10T12:24:43;53.38;;;24.48;;
27199;SDS011;14714;48.106;11.546;2024-01-10T12:27:18;56.55;;;24.35;;
27199;SDS011;14714;48.106;11.546;2024-01-10T12:29:49;54.15;;;23.95;;
27199;SDS011;14714;48.106;11.546;2024-01-10T12:32:18;54.60;;;24.35;;
27199;SDS011;14714;48.106;11.546;2024-01-10T12:34:47;54.35;;;24.98;;
27199;SDS011;14714;48.106;11.546;2024-01-10T12:37:14;55.72;;;25.08;;
27199;SDS011;14714;48.106;11.546;2024-01-10T12:39:41;58.42;;;24.85;;
27199;SDS011;14714;48.106;11.546;2024-01-10T12:42:08;54.05;;;24.02;;
27199;SDS011;14714;48.106;11.546;2024-01-10T12:44:36;56.90;;;24.77;;
27199;SDS011;14714;48.106;11.546;2024-01-10T12:47:03;56.95;;;25.33;;
27199;SDS011;14714;48.106;11.546;2024-01-10T12:49:30;52.97;;;23.77;;
27199;SDS011;14714;48.106;11.546;2024-01-10T12:51:58;55.75;;;25.25;;
27199;SDS011;14714;48.106;11.546;2024-01-10T12:54:25;55.33;;;24.17;;
27199;SDS011;14714;48.106;11.546;2024-01-10T12:56:51;58.83;;;25.38;;
27199;SDS011;14714;48.106;11.546;2024-01-10T12:59:18;57.20;;;25.05;;
27199;SDS011;14714;48.106;11.546;2024-01-10T13:01:45;59.28;;;25.70;;
27199;SDS011;14714;48.106;11.546;2024-01-10T13:04:12;60.95;;;26.35;;
27199;SDS011;14714;48.106;11.546;2024-01-10T13:06:39;61.88;;;26.42;;
27199;SDS011;14714;48.106;11.546;2024-01-10T13:09:07;61.25;;;25.98;;
27199;SDS011;14714;48.106;11.546;2024-01-10T13:11:34;59.35;;;26.27;;
27199;SDS011;14714;48.106;11.546;2024-01-10T13:14:01;63.40;;;25.80;;
27199;SDS011;14714;48.106;11.546;2024-01-10T13:16:28;62.88;;;26.40;;
27199;SDS011;14714;48.106;11.546;2024-01-10T13:18:56;62.47;;;26.92;;
27199;SDS011;14714;48.106;11.546;2024-01-10T13:21:25;59.00;;;25.33;;
27199;SDS011;14714;48.106;11.546;2024-01-10T13:23:52;58.63;;;25.98;;
27199;SDS011;14714;48.106;11.546;2024-01-10T13:26:19;64.22;;;26.05;;
27199;SDS011;14714;48.106;11.546;2024-01-10T13:28:46;60.22;;;26.10;;
27199;SDS011;14714;48.106;11.546;2024-01-10T13:31:13;62.10;;;25.55;;
27199;SDS011;14714;48.106;11.546;2024-01-10T13:33:41;64.88;;;26.60;;
27199;SDS011;14714;48.106;11.546;2024-01-10T13:36:13;65.18;;;26.02;;
27199;SDS011;14714;48.106;11.546;2024-01-10T13:38:40;63.42;;;26.35;;
27199;SDS011;14714;48.106;11.546;2024-01-10T13:41:07;63.38;;;26.80;;
27199;SDS011;14714;48.106;11.546;2024-01-10T13:43:35;63.17;;;26.85;;
27199;SDS011;14714;48.106;11.546;2024-01-10T13:46:02;65.18;;;26.45;;
27199;SDS011;14714;48.106;11.546;2024-01-10T13:48:34;67.03;;;27.17;;
27199;SDS011;14714;48.106;11.546;2024-01-10T13:51:02;62.55;;;26.30;;
27199;SDS011;14714;48.106;11.546;2024-01-10T13:53:29;62.50;;;26.23;;
27199;SDS011;14714;48.106;11.546;2024-01-10T13:55:56;62.53;;;26.55;;
27199;SDS011;14714;48.106;11.546;2024-01-10T13:58:23;64.80;;;26.40;;
27199;SDS011;14714;48.106;11.546;2024-01-10T14:00:50;65.13;;;26.67;;
27199;SDS011;14714;48.106;11.546;2024-01-10T14:03:18;64.78;;;26.95;;
27199;SDS011;14714;48.106;11.546;2024-01-10T14:05:45;66.72;;;26.92;;
27199;SDS011;14714;48.106;11.546;2024-01-10T14:08:12;70.90;;;26.80;;
27199;SDS011;14714;48.106;11.546;2024-01-10T14:10:39;67.13;;;27.08;;
27199;SDS011;14714;48.106;11.546;2024-01-10T14:13:08;68.40;;;25.48;;
27199;SDS011;14714;48.106;11.546;2024-01-10T14:15:35;66.53;;;25.10;;
27199;SDS011;14714;48.106;11.546;2024-01-10T14:18:02;66.43;;;27.77;;
27199;SDS011;14714;48.106;11.546;2024-01-10T14:20:29;64.97;;;25.98;;
27199;SDS011;14714;48.106;11.546;2024-01-10T14:22:57;61.33;;;25.67;;
27199;SDS011;14714;48.106;11.546;2024-01-10T14:25:26;63.78;;;26.05;;
27199;SDS011;14714;48.106;11.546;2024-01-10T14:27:53;70.85;;;27.00;;
27199;SDS011;14714;48.106;11.546;2024-01-10T14:30:20;68.63;;;27.65;;
27199;SDS011;14714;48.106;11.546;2024-01-10T14:32:47;64.18;;;25.83;;
27199;SDS011;14714;48.106;11.546;2024-01-10T14:35:15;68.97;;;26.58;;